createdAt,value
2018-09-28T00:00:14.691Z,0.00
2018-09-28T00:01:14.663Z,0.00
2018-09-28T00:02:14.637Z,0.00
2018-09-28T00:03:14.614Z,0.00
2018-09-28T00:04:14.586Z,0.00
2018-09-28T00:05:14.558Z,0.00
2018-09-28T00:06:14.531Z,0.00
2018-09-28T00:07:14.505Z,0.00
2018-09-28T00:08:14.479Z,0.00
2018-09-28T00:09:14.454Z,0.00
2018-09-28T00:10:14.427Z,0.00
2018-09-28T00:11:14.401Z,0.00
2018-09-28T00:12:14.376Z,0.00
2018-09-28T00:13:14.349Z,0.00
2018-09-28T00:14:14.326Z,0.00
2018-09-28T00:15:14.296Z,0.00
2018-09-28T00:16:14.270Z,0.00
2018-09-28T00:17:14.244Z,0.00
2018-09-28T00:18:14.218Z,0.00
2018-09-28T00:19:14.192Z,0.00
2018-09-28T00:20:14.170Z,0.00
2018-09-28T00:21:14.153Z,0.00
2018-09-28T00:22:14.112Z,0.00
2018-09-28T00:23:14.093Z,0.00
2018-09-28T00:24:14.061Z,0.00
2018-09-28T00:25:14.036Z,0.00
2018-09-28T00:26:14.009Z,0.00
2018-09-28T00:27:13.983Z,0.00
2018-09-28T00:28:13.957Z,0.00
2018-09-28T00:29:13.930Z,0.00
2018-09-28T00:30:13.906Z,0.00
2018-09-28T00:31:13.880Z,0.00
2018-09-28T00:32:13.851Z,0.00
2018-09-28T00:33:13.827Z,0.00
2018-09-28T00:34:13.799Z,0.00
2018-09-28T00:35:13.779Z,0.00
2018-09-28T00:36:13.750Z,0.00
2018-09-28T00:37:13.725Z,0.00
2018-09-28T00:38:13.695Z,0.00
2018-09-28T00:39:13.669Z,0.00
2018-09-28T00:40:13.643Z,0.00
2018-09-28T00:41:13.617Z,0.00
2018-09-28T00:42:13.590Z,0.00
2018-09-28T00:43:13.865Z,0.00
2018-09-28T00:44:13.539Z,0.00
2018-09-28T00:45:13.514Z,0.00
2018-09-28T00:46:13.486Z,0.00
2018-09-28T00:47:13.460Z,0.00
2018-09-28T00:48:13.435Z,0.00
2018-09-28T00:49:13.410Z,0.00
2018-09-28T00:50:13.383Z,0.00
2018-09-28T00:51:13.356Z,0.00
2018-09-28T00:52:13.331Z,0.00
2018-09-28T00:53:13.311Z,0.00
2018-09-28T00:54:13.279Z,0.00
2018-09-28T00:55:13.452Z,0.00
2018-09-28T00:56:13.227Z,0.00
2018-09-28T00:57:13.199Z,0.00
2018-09-28T00:58:13.172Z,0.00
2018-09-28T00:59:13.150Z,0.00
2018-09-28T01:00:13.120Z,0.00
2018-09-28T01:01:13.096Z,0.00
2018-09-28T01:02:13.067Z,0.00
2018-09-28T01:03:13.041Z,0.00
2018-09-28T01:04:13.015Z,0.00
2018-09-28T01:05:12.989Z,0.00
2018-09-28T01:06:12.962Z,0.00
2018-09-28T01:07:12.939Z,0.00
2018-09-28T01:08:12.910Z,0.00
2018-09-28T01:09:12.885Z,0.00
2018-09-28T01:10:12.857Z,0.00
2018-09-28T01:11:12.831Z,0.00
2018-09-28T01:12:12.805Z,0.00
2018-09-28T01:13:12.778Z,0.00
2018-09-28T01:14:12.751Z,0.00
2018-09-28T01:15:12.725Z,0.00
2018-09-28T01:16:12.698Z,0.00
2018-09-28T01:17:12.673Z,0.00
2018-09-28T01:18:12.650Z,0.00
2018-09-28T01:19:12.625Z,0.00
2018-09-28T01:20:12.618Z,0.00
2018-09-28T01:21:12.568Z,0.00
2018-09-28T01:22:12.542Z,0.00
2018-09-28T01:23:12.516Z,0.00
2018-09-28T01:24:12.488Z,0.00
2018-09-28T01:25:12.463Z,0.00
2018-09-28T01:26:12.440Z,0.00
2018-09-28T01:27:12.417Z,0.00
2018-09-28T01:28:12.384Z,0.00
2018-09-28T01:29:12.357Z,0.00
2018-09-28T01:30:12.337Z,0.00
2018-09-28T01:31:12.305Z,0.00
2018-09-28T01:32:12.279Z,0.00
2018-09-28T01:33:12.252Z,0.00
2018-09-28T01:34:12.225Z,0.00
2018-09-28T01:35:12.198Z,0.00
2018-09-28T01:36:12.176Z,0.00
2018-09-28T01:37:12.147Z,0.00
2018-09-28T01:38:12.121Z,0.00
2018-09-28T01:39:12.094Z,0.00
2018-09-28T01:40:12.067Z,0.00
2018-09-28T01:41:12.041Z,0.00
2018-09-28T01:42:12.017Z,0.00
2018-09-28T01:43:11.988Z,0.00
2018-09-28T01:44:11.962Z,0.00
2018-09-28T01:45:11.938Z,0.00
2018-09-28T01:46:11.912Z,0.00
2018-09-28T01:47:12.084Z,0.00
2018-09-28T01:48:11.860Z,0.00
2018-09-28T01:49:11.830Z,0.00
2018-09-28T01:50:11.805Z,0.00
2018-09-28T01:51:11.776Z,0.00
2018-09-28T01:52:11.750Z,0.00
2018-09-28T01:53:11.731Z,0.00
2018-09-28T01:54:11.699Z,0.00
2018-09-28T01:55:11.674Z,0.00
2018-09-28T01:56:11.644Z,0.00
2018-09-28T01:57:11.618Z,0.00
2018-09-28T01:58:11.591Z,0.00
2018-09-28T01:59:11.564Z,0.00
2018-09-28T02:00:11.542Z,0.00
2018-09-28T02:01:11.512Z,0.00
2018-09-28T02:02:11.484Z,0.00
2018-09-28T02:03:11.458Z,0.00
2018-09-28T02:04:11.432Z,0.00
2018-09-28T02:05:11.405Z,0.00
2018-09-28T02:06:11.377Z,0.00
2018-09-28T02:07:11.352Z,0.00
2018-09-28T02:08:11.528Z,0.00
2018-09-28T02:09:11.304Z,0.00
2018-09-28T02:10:11.271Z,0.00
2018-09-28T02:11:11.245Z,0.00
2018-09-28T02:12:11.219Z,0.00
2018-09-28T02:13:11.195Z,0.00
2018-09-28T02:14:11.165Z,0.00
2018-09-28T02:15:11.139Z,0.00
2018-09-28T02:16:11.112Z,0.00
2018-09-28T02:17:11.099Z,0.00
2018-09-28T02:18:11.059Z,0.00
2018-09-28T02:19:11.042Z,0.00
2018-09-28T02:20:11.006Z,0.00
2018-09-28T02:21:10.979Z,0.00
2018-09-28T02:22:11.203Z,0.00
2018-09-28T02:23:11.134Z,0.00
2018-09-28T02:24:10.898Z,0.00
2018-09-28T02:25:10.876Z,0.00
2018-09-28T02:26:10.845Z,0.00
2018-09-28T02:27:10.818Z,0.00
2018-09-28T02:28:10.994Z,0.00
2018-09-28T02:29:10.787Z,0.00
2018-09-28T02:30:10.740Z,0.00
2018-09-28T02:31:10.713Z,0.00
2018-09-28T02:32:10.689Z,0.00
2018-09-28T02:33:10.658Z,0.00
2018-09-28T02:34:10.833Z,0.00
2018-09-28T02:35:10.608Z,0.00
2018-09-28T02:36:10.579Z,0.00
2018-09-28T02:37:10.553Z,0.00
2018-09-28T02:38:10.729Z,0.00
2018-09-28T02:39:10.497Z,0.00
2018-09-28T02:40:10.871Z,0.00
2018-09-28T02:41:10.445Z,0.00
2018-09-28T02:42:10.419Z,0.00
2018-09-28T02:43:10.393Z,0.00
2018-09-28T02:44:10.364Z,0.00
2018-09-28T02:45:10.337Z,0.00
2018-09-28T02:46:10.309Z,0.00
2018-09-28T02:47:10.288Z,0.00
2018-09-28T02:48:10.255Z,0.00
2018-09-28T02:49:10.230Z,0.00
2018-09-28T02:50:10.206Z,0.00
2018-09-28T02:51:10.175Z,0.00
2018-09-28T02:52:10.149Z,0.00
2018-09-28T02:53:10.154Z,0.00
2018-09-28T02:54:10.097Z,0.00
2018-09-28T02:55:10.077Z,0.00
2018-09-28T02:56:10.041Z,0.00
2018-09-28T02:57:10.022Z,0.00
2018-09-28T02:58:09.990Z,0.00
2018-09-28T02:59:09.964Z,0.00
2018-09-28T03:00:09.934Z,0.00
2018-09-28T03:01:09.909Z,0.00
2018-09-28T03:02:09.882Z,0.00
2018-09-28T03:03:09.854Z,0.00
2018-09-28T03:04:09.828Z,0.00
2018-09-28T03:05:09.801Z,0.00
2018-09-28T03:06:09.790Z,0.00
2018-09-28T03:07:09.748Z,0.00
2018-09-28T03:08:09.720Z,0.00
2018-09-28T03:09:09.695Z,0.00
2018-09-28T03:10:09.666Z,0.00
2018-09-28T03:11:09.640Z,0.00
2018-09-28T03:12:09.612Z,0.00
2018-09-28T03:13:09.586Z,0.00
2018-09-28T03:14:09.562Z,0.00
2018-09-28T03:15:09.589Z,0.00
2018-09-28T03:16:09.505Z,0.00
2018-09-28T03:17:09.480Z,0.00
2018-09-28T03:18:09.451Z,0.00
2018-09-28T03:19:09.425Z,0.00
2018-09-28T03:20:09.401Z,0.00
2018-09-28T03:21:09.370Z,0.00
2018-09-28T03:22:09.343Z,0.00
2018-09-28T03:23:09.321Z,0.00
2018-09-28T03:24:09.290Z,0.00
2018-09-28T03:25:09.264Z,0.00
2018-09-28T03:26:09.237Z,0.00
2018-09-28T03:27:09.208Z,0.00
2018-09-28T03:28:09.187Z,0.00
2018-09-28T03:29:09.155Z,0.00
2018-09-28T03:30:09.131Z,0.00
2018-09-28T03:31:09.101Z,0.00
2018-09-28T03:32:09.075Z,0.00
2018-09-28T03:33:09.050Z,0.00
2018-09-28T03:34:09.020Z,0.00
2018-09-28T03:35:08.996Z,0.00
2018-09-28T03:36:08.969Z,0.00
2018-09-28T03:37:08.939Z,0.00
2018-09-28T03:38:08.914Z,0.00
2018-09-28T03:39:08.885Z,0.00
2018-09-28T03:40:08.863Z,0.00
2018-09-28T03:41:08.831Z,0.00
2018-09-28T03:42:08.804Z,0.00
2018-09-28T03:43:08.777Z,0.00
2018-09-28T03:44:08.754Z,0.00
2018-09-28T03:45:08.729Z,0.00
2018-09-28T03:46:08.699Z,0.00
2018-09-28T03:47:08.670Z,0.00
2018-09-28T03:48:08.645Z,0.00
2018-09-28T03:49:08.616Z,0.00
2018-09-28T03:50:08.588Z,0.00
2018-09-28T03:51:08.560Z,0.00
2018-09-28T03:52:08.536Z,0.00
2018-09-28T03:53:08.507Z,0.00
2018-09-28T03:54:08.479Z,0.00
2018-09-28T03:55:08.454Z,0.00
2018-09-28T03:56:08.426Z,0.00
2018-09-28T03:57:08.398Z,0.00
2018-09-28T03:58:08.372Z,0.00
2018-09-28T03:59:08.345Z,0.00
2018-09-28T04:00:08.317Z,0.00
2018-09-28T04:01:08.291Z,0.00
2018-09-28T04:02:08.264Z,0.00
2018-09-28T04:03:08.245Z,0.00
2018-09-28T04:04:08.220Z,0.00
2018-09-28T04:05:08.189Z,0.00
2018-09-28T04:06:08.155Z,0.00
2018-09-28T04:07:08.128Z,0.00
2018-09-28T04:08:08.104Z,0.00
2018-09-28T04:09:08.075Z,0.00
2018-09-28T04:10:08.052Z,0.00
2018-09-28T04:11:08.020Z,0.00
2018-09-28T04:12:07.996Z,0.00
2018-09-28T04:13:07.966Z,0.00
2018-09-28T04:14:07.938Z,0.00
2018-09-28T04:15:07.934Z,0.00
2018-09-28T04:16:07.888Z,0.00
2018-09-28T04:17:07.857Z,0.00
2018-09-28T04:18:07.831Z,0.00
2018-09-28T04:19:07.803Z,0.00
2018-09-28T04:20:07.776Z,0.00
2018-09-28T04:21:07.749Z,0.00
2018-09-28T04:22:07.754Z,0.00
2018-09-28T04:23:07.695Z,0.00
2018-09-28T04:24:07.667Z,0.00
2018-09-28T04:25:07.641Z,0.00
2018-09-28T04:26:07.616Z,0.00
2018-09-28T04:27:07.586Z,0.00
2018-09-28T04:28:07.564Z,0.00
2018-09-28T04:29:07.532Z,0.00
2018-09-28T04:30:07.506Z,0.00
2018-09-28T04:31:07.480Z,0.00
2018-09-28T04:32:07.454Z,0.00
2018-09-28T04:33:07.429Z,0.00
2018-09-28T04:34:07.395Z,0.00
2018-09-28T04:35:07.369Z,0.00
2018-09-28T04:36:07.341Z,0.00
2018-09-28T04:37:07.317Z,0.00
2018-09-28T04:38:07.289Z,0.00
2018-09-28T04:39:07.260Z,4.00
2018-09-28T04:40:07.232Z,4.00
2018-09-28T04:41:07.208Z,4.00
2018-09-28T04:42:07.179Z,0.00
2018-09-28T04:43:07.157Z,4.00
2018-09-28T04:44:07.126Z,4.00
2018-09-28T04:45:07.132Z,4.00
2018-09-28T04:46:07.071Z,8.00
2018-09-28T04:47:07.050Z,4.00
2018-09-28T04:48:07.020Z,4.00
2018-09-28T04:49:06.988Z,8.00
2018-09-28T04:50:06.961Z,12.00
2018-09-28T04:51:06.934Z,12.00
2018-09-28T04:52:06.907Z,12.00
2018-09-28T04:53:06.880Z,16.00
2018-09-28T04:54:06.853Z,20.00
2018-09-28T04:55:06.825Z,20.00
2018-09-28T04:56:06.814Z,24.00
2018-09-28T04:57:06.771Z,28.00
2018-09-28T04:58:06.744Z,36.00
2018-09-28T04:59:06.717Z,36.00
2018-09-28T05:00:06.690Z,48.00
2018-09-28T05:01:06.666Z,56.00
2018-09-28T05:02:06.642Z,68.00
2018-09-28T05:03:06.608Z,84.00
2018-09-28T05:04:06.582Z,96.00
2018-09-28T05:05:06.552Z,116.00
2018-09-28T05:06:06.524Z,132.00
2018-09-28T05:07:06.499Z,152.00
2018-09-28T05:08:06.474Z,176.00
2018-09-28T05:09:06.446Z,196.00
2018-09-28T05:10:06.420Z,220.00
2018-09-28T05:11:06.389Z,244.00
2018-09-28T05:12:06.363Z,272.00
2018-09-28T05:13:06.379Z,304.00
2018-09-28T05:14:06.309Z,344.00
2018-09-28T05:15:06.284Z,384.00
2018-09-28T05:16:06.253Z,428.00
2018-09-28T05:17:06.227Z,472.00
2018-09-28T05:18:06.199Z,520.00
2018-09-28T05:19:06.175Z,580.00
2018-09-28T05:20:06.145Z,640.00
2018-09-28T05:21:06.117Z,708.00
2018-09-28T05:22:06.090Z,772.00
2018-09-28T05:23:06.064Z,836.00
2018-09-28T05:24:06.039Z,904.00
2018-09-28T05:25:06.084Z,988.00
2018-09-28T05:26:05.981Z,1076.00
2018-09-28T05:27:05.953Z,1172.00
2018-09-28T05:28:05.927Z,1276.00
2018-09-28T05:29:05.899Z,1388.00
2018-09-28T05:30:05.872Z,1488.00
2018-09-28T05:31:05.852Z,1580.00
2018-09-28T05:32:05.981Z,1672.00
2018-09-28T05:33:05.842Z,1764.00
2018-09-28T05:34:05.763Z,1864.00
2018-09-28T05:35:05.736Z,1976.00
2018-09-28T05:36:05.707Z,2100.00
2018-09-28T05:37:05.695Z,2252.00
2018-09-28T05:38:05.653Z,2452.00
2018-09-28T05:39:05.638Z,2740.00
2018-09-28T05:40:05.596Z,3028.00
2018-09-28T05:41:05.629Z,3252.00
2018-09-28T05:42:05.545Z,3460.00
2018-09-28T05:43:05.520Z,3636.00
2018-09-28T05:44:05.487Z,3916.00
2018-09-28T05:45:05.460Z,4236.00
2018-09-28T05:46:05.431Z,4464.00
2018-09-28T05:47:05.407Z,4672.00
2018-09-28T05:48:05.378Z,4872.00
2018-09-28T05:49:05.360Z,5060.00
2018-09-28T05:50:05.322Z,5216.00
2018-09-28T05:51:05.294Z,5368.00
2018-09-28T05:52:05.268Z,5504.00
2018-09-28T05:53:05.241Z,5612.00
2018-09-28T05:54:05.218Z,5480.00
2018-09-28T05:55:05.188Z,5548.00
2018-09-28T05:56:05.159Z,6112.00
2018-09-28T05:57:05.132Z,6416.00
2018-09-28T05:58:05.105Z,6640.00
2018-09-28T05:59:05.076Z,6852.00
2018-09-28T06:00:05.051Z,7064.00
2018-09-28T06:01:05.024Z,7268.00
2018-09-28T06:02:04.997Z,7452.00
2018-09-28T06:03:04.969Z,7784.00
2018-09-28T06:04:04.943Z,8128.00
2018-09-28T06:05:04.920Z,8476.00
2018-09-28T06:06:04.891Z,8868.00
2018-09-28T06:07:04.862Z,9216.00
2018-09-28T06:08:04.841Z,9516.00
2018-09-28T06:09:04.809Z,9736.00
2018-09-28T06:10:04.781Z,10212.00
2018-09-28T06:11:04.756Z,10684.00
2018-09-28T06:12:04.938Z,11096.00
2018-09-28T06:13:04.905Z,11480.00
2018-09-28T06:14:04.674Z,11932.00
2018-09-28T06:15:04.649Z,12324.00
2018-09-28T06:16:04.626Z,12696.00
2018-09-28T06:17:04.598Z,13220.00
2018-09-28T06:18:04.666Z,13820.00
2018-09-28T06:19:04.548Z,14396.00
2018-09-28T06:20:04.719Z,14848.00
2018-09-28T06:21:04.491Z,15552.00
2018-09-28T06:22:04.464Z,16160.00
2018-09-28T06:23:04.451Z,16608.00
2018-09-28T06:24:04.449Z,17248.00
2018-09-28T06:25:04.386Z,17728.00
2018-09-28T06:26:04.402Z,17792.00
2018-09-28T06:27:04.335Z,18048.00
2018-09-28T06:28:04.307Z,17600.00
2018-09-28T06:29:04.281Z,17344.00
2018-09-28T06:30:04.303Z,18944.00
2018-09-28T06:31:04.231Z,19488.00
2018-09-28T06:32:04.204Z,19520.00
2018-09-28T06:33:04.190Z,19808.00
2018-09-28T06:34:04.153Z,19808.00
2018-09-28T06:35:04.128Z,15484.00
2018-09-28T06:36:04.118Z,14304.00
2018-09-28T06:37:04.077Z,13696.00
2018-09-28T06:38:04.052Z,15396.00
2018-09-28T06:39:04.025Z,14024.00
2018-09-28T06:40:03.999Z,20896.00
2018-09-28T06:41:03.975Z,21536.00
2018-09-28T06:42:03.996Z,21856.00
2018-09-28T06:43:03.923Z,21760.00
2018-09-28T06:44:03.898Z,21696.00
2018-09-28T06:45:04.085Z,22400.00
2018-09-28T06:46:03.847Z,22816.00
2018-09-28T06:47:03.827Z,23296.00
2018-09-28T06:48:04.046Z,24320.00
2018-09-28T06:49:03.773Z,23936.00
2018-09-28T06:50:03.747Z,22560.00
2018-09-28T06:51:03.722Z,24384.00
2018-09-28T06:52:03.700Z,24256.00
2018-09-28T06:53:03.674Z,25248.00
2018-09-28T06:54:03.670Z,25696.00
2018-09-28T06:55:03.622Z,25024.00
2018-09-28T06:56:03.602Z,26272.00
2018-09-28T06:57:03.573Z,26240.00
2018-09-28T06:58:03.559Z,26432.00
2018-09-28T06:59:03.522Z,27136.00
2018-09-28T07:00:03.516Z,27136.00
2018-09-28T07:01:03.473Z,27616.00
2018-09-28T07:02:03.453Z,26784.00
2018-09-28T07:03:03.474Z,26048.00
2018-09-28T07:04:03.438Z,28128.00
2018-09-28T07:05:03.578Z,28960.00
2018-09-28T07:06:03.407Z,28992.00
2018-09-28T07:07:03.326Z,29984.00
2018-09-28T07:08:03.301Z,30464.00
2018-09-28T07:09:03.278Z,31232.00
2018-09-28T07:10:03.254Z,30688.00
2018-09-28T07:11:03.231Z,32096.00
2018-09-28T07:12:03.241Z,31616.00
2018-09-28T07:13:03.180Z,31360.00
2018-09-28T07:14:03.158Z,32160.00
2018-09-28T07:15:03.137Z,32320.00
2018-09-28T07:16:03.109Z,31648.00
2018-09-28T07:17:03.086Z,29760.00
2018-09-28T07:18:03.238Z,29728.00
2018-09-28T07:19:03.037Z,27840.00
2018-09-28T07:20:03.380Z,27584.00
2018-09-28T07:21:02.990Z,25312.00
2018-09-28T07:22:02.968Z,27200.00
2018-09-28T07:23:02.946Z,26624.00
2018-09-28T07:24:02.995Z,31360.00
2018-09-28T07:25:02.907Z,25440.00
2018-09-28T07:26:02.870Z,23712.00
2018-09-28T07:27:02.849Z,21120.00
2018-09-28T07:28:02.823Z,24928.00
2018-09-28T07:29:02.798Z,30336.00
2018-09-28T07:30:02.790Z,31136.00
2018-09-28T07:31:02.801Z,31200.00
2018-09-28T07:32:02.727Z,26496.00
2018-09-28T07:33:02.712Z,26208.00
2018-09-28T07:34:02.685Z,25024.00
2018-09-28T07:35:02.654Z,31520.00
2018-09-28T07:36:02.736Z,24160.00
2018-09-28T07:37:02.776Z,24928.00
2018-09-28T07:38:02.586Z,21024.00
2018-09-28T07:39:02.566Z,25152.00
2018-09-28T07:40:02.533Z,29824.00
2018-09-28T07:41:02.510Z,32224.00
2018-09-28T07:42:02.499Z,41088.00
2018-09-28T07:43:02.463Z,46624.00
2018-09-28T07:44:02.443Z,45696.00
2018-09-28T07:45:02.415Z,45056.00
2018-09-28T07:46:02.390Z,43392.00
2018-09-28T07:47:02.569Z,41696.00
2018-09-28T07:48:02.345Z,43232.00
2018-09-28T07:49:02.536Z,44000.00
2018-09-28T07:50:02.499Z,44544.00
2018-09-28T07:51:02.286Z,46560.00
2018-09-28T07:52:02.251Z,46112.00
2018-09-28T07:53:02.230Z,49280.00
2018-09-28T07:54:02.220Z,38816.00
2018-09-28T07:55:02.185Z,26912.00
2018-09-28T07:56:02.161Z,34336.00
2018-09-28T07:57:02.139Z,31072.00
2018-09-28T07:58:02.114Z,30176.00
2018-09-28T07:59:02.100Z,27200.00
2018-09-28T08:00:02.072Z,25440.00
2018-09-28T08:01:02.050Z,24224.00
2018-09-28T08:02:02.034Z,22752.00
2018-09-28T08:03:02.002Z,24672.00
2018-09-28T08:04:01.983Z,21664.00
2018-09-28T08:05:01.955Z,22560.00
2018-09-28T08:06:01.931Z,23904.00
2018-09-28T08:07:01.911Z,29760.00
2018-09-28T08:08:01.882Z,28736.00
2018-09-28T08:09:01.859Z,27936.00
2018-09-28T08:10:01.835Z,35264.00
2018-09-28T08:11:01.810Z,38016.00
2018-09-28T08:12:01.989Z,39392.00
2018-09-28T08:13:01.970Z,35072.00
2018-09-28T08:14:01.738Z,33024.00
2018-09-28T08:15:01.715Z,32864.00
2018-09-28T08:16:01.691Z,40608.00
2018-09-28T08:17:01.669Z,49824.00
2018-09-28T08:18:01.749Z,50560.00
2018-09-28T08:19:01.619Z,52480.00
2018-09-28T08:20:01.596Z,43072.00
2018-09-28T08:21:01.575Z,34944.00
2018-09-28T08:22:01.549Z,36320.00
2018-09-28T08:23:01.747Z,47296.00
2018-09-28T08:24:01.503Z,49632.00
2018-09-28T08:25:01.480Z,50560.00
2018-09-28T08:26:01.659Z,46240.00
2018-09-28T08:27:01.437Z,40896.00
2018-09-28T08:28:01.612Z,40800.00
2018-09-28T08:29:01.388Z,39136.00
2018-09-28T08:30:01.367Z,40256.00
2018-09-28T08:31:01.346Z,45312.00
2018-09-28T08:32:01.320Z,47552.00
2018-09-28T08:33:01.298Z,48160.00
2018-09-28T08:34:01.275Z,44864.00
2018-09-28T08:35:01.253Z,44512.00
2018-09-28T08:36:01.236Z,43424.00
2018-09-28T08:37:01.210Z,44128.00
2018-09-28T08:38:01.185Z,42912.00
2018-09-28T08:39:01.165Z,43488.00
2018-09-28T08:40:01.144Z,43872.00
2018-09-28T08:41:01.120Z,40608.00
2018-09-28T08:42:01.095Z,43552.00
2018-09-28T08:43:01.075Z,45024.00
2018-09-28T08:44:01.053Z,42048.00
2018-09-28T08:45:01.032Z,43424.00
2018-09-28T08:46:01.008Z,44000.00
2018-09-28T08:47:00.985Z,44672.00
2018-09-28T08:48:00.965Z,44320.00
2018-09-28T08:49:00.969Z,46144.00
2018-09-28T08:50:00.921Z,42912.00
2018-09-28T08:51:00.899Z,45824.00
2018-09-28T08:52:00.877Z,47744.00
2018-09-28T08:53:00.854Z,50368.00
2018-09-28T08:54:00.832Z,51264.00
2018-09-28T08:55:00.813Z,52128.00
2018-09-28T08:56:00.789Z,47136.00
2018-09-28T08:57:00.768Z,51808.00
2018-09-28T08:58:00.747Z,51456.00
2018-09-28T08:59:00.724Z,52448.00
2018-09-28T09:00:00.701Z,47680.00
2018-09-28T09:01:00.684Z,49376.00
2018-09-28T09:02:00.686Z,52192.00
2018-09-28T09:03:00.638Z,48256.00
2018-09-28T09:04:00.618Z,43680.00
2018-09-28T09:05:00.595Z,45600.00
2018-09-28T09:06:00.574Z,48224.00
2018-09-28T09:07:00.559Z,46720.00
2018-09-28T09:08:00.530Z,48352.00
2018-09-28T09:09:00.511Z,45472.00
2018-09-28T09:10:00.489Z,48864.00
2018-09-28T09:11:00.469Z,50560.00
2018-09-28T09:12:00.443Z,51680.00
2018-09-28T09:13:00.427Z,49888.00
2018-09-28T09:14:00.400Z,47776.00
2018-09-28T09:15:00.378Z,56192.00
2018-09-28T09:16:00.358Z,57216.00
2018-09-28T09:17:00.337Z,59040.00
2018-09-28T09:18:00.404Z,57856.00
2018-09-28T09:19:00.293Z,59904.00
2018-09-28T09:20:00.277Z,69536.00
2018-09-28T09:21:00.247Z,48736.00
2018-09-28T09:22:00.232Z,62496.00
2018-09-28T09:23:00.204Z,57984.00
2018-09-28T09:24:00.490Z,57728.00
2018-09-28T09:25:00.161Z,49888.00
2018-09-28T09:26:00.139Z,57568.00
2018-09-28T09:27:00.319Z,56352.00
2018-09-28T09:28:00.296Z,58592.00
2018-09-28T09:29:00.280Z,48000.00
2018-09-28T09:30:00.092Z,50720.00
2018-09-28T09:31:00.031Z,39424.00
2018-09-28T09:32:00.015Z,42016.00
2018-09-28T09:32:59.986Z,41024.00
2018-09-28T09:33:59.965Z,42496.00
2018-09-28T09:34:59.944Z,43968.00
2018-09-28T09:35:59.921Z,49824.00
2018-09-28T09:36:59.903Z,41856.00
2018-09-28T09:37:59.876Z,50528.00
2018-09-28T09:38:59.854Z,53248.00
2018-09-28T09:39:59.834Z,40384.00
2018-09-28T09:40:59.870Z,35296.00
2018-09-28T09:41:59.787Z,44800.00
2018-09-28T09:42:59.765Z,45792.00
2018-09-28T09:43:59.751Z,55808.00
2018-09-28T09:44:59.721Z,61376.00
2018-09-28T09:45:59.703Z,73600.00
2018-09-28T09:46:59.676Z,75392.00
2018-09-28T09:47:59.657Z,68800.00
2018-09-28T09:48:59.633Z,67712.00
2018-09-28T09:49:59.811Z,67712.00
2018-09-28T09:50:59.588Z,57664.00
2018-09-28T09:51:59.565Z,30848.00
2018-09-28T09:52:59.544Z,36288.00
2018-09-28T09:53:59.521Z,38688.00
2018-09-28T09:54:59.501Z,40736.00
2018-09-28T09:55:59.479Z,35840.00
2018-09-28T09:56:59.461Z,49216.00
2018-09-28T09:57:59.458Z,61056.00
2018-09-28T09:58:59.442Z,74304.00
2018-09-28T09:59:59.592Z,78208.00
2018-09-28T10:00:59.569Z,75008.00
2018-09-28T10:01:59.343Z,58400.00
2018-09-28T10:02:59.321Z,66304.00
2018-09-28T10:03:59.304Z,74880.00
2018-09-28T10:04:59.278Z,70112.00
2018-09-28T10:05:59.253Z,68928.00
2018-09-28T10:06:59.240Z,76448.00
2018-09-28T10:07:59.415Z,69504.00
2018-09-28T10:08:59.400Z,66240.00
2018-09-28T10:09:59.172Z,54144.00
2018-09-28T10:10:59.349Z,72320.00
2018-09-28T10:11:59.326Z,70976.00
2018-09-28T10:12:59.304Z,69856.00
2018-09-28T10:13:59.080Z,70912.00
2018-09-28T10:14:59.058Z,56992.00
2018-09-28T10:15:59.241Z,77760.00
2018-09-28T10:16:59.218Z,82112.00
2018-09-28T10:17:58.993Z,85056.00
2018-09-28T10:18:58.972Z,86400.00
2018-09-28T10:19:59.153Z,78560.00
2018-09-28T10:20:59.132Z,78400.00
2018-09-28T10:21:59.110Z,72608.00
2018-09-28T10:22:59.090Z,82624.00
2018-09-28T10:23:59.069Z,81920.00
2018-09-28T10:24:59.048Z,53504.00
2018-09-28T10:25:58.828Z,59648.00
2018-09-28T10:26:58.828Z,49632.00
2018-09-28T10:27:58.798Z,26144.00
2018-09-28T10:28:58.965Z,49152.00
2018-09-28T10:29:58.746Z,22112.00
2018-09-28T10:30:58.922Z,20768.00
2018-09-28T10:31:58.903Z,35488.00
2018-09-28T10:32:58.681Z,46816.00
2018-09-28T10:33:58.658Z,47872.00
2018-09-28T10:34:58.637Z,55264.00
2018-09-28T10:35:58.616Z,65952.00
2018-09-28T10:36:58.601Z,53312.00
2018-09-28T10:37:58.573Z,57472.00
2018-09-28T10:38:58.550Z,69120.00
2018-09-28T10:39:58.530Z,74624.00
2018-09-28T10:40:58.566Z,78720.00
2018-09-28T10:41:58.486Z,46240.00
2018-09-28T10:42:58.466Z,58400.00
2018-09-28T10:43:58.442Z,57376.00
2018-09-28T10:44:58.422Z,70176.00
2018-09-28T10:45:58.399Z,73216.00
2018-09-28T10:46:58.382Z,64608.00
2018-09-28T10:47:58.363Z,87456.00
2018-09-28T10:48:58.348Z,87264.00
2018-09-28T10:49:58.314Z,84704.00
2018-09-28T10:50:58.353Z,83424.00
2018-09-28T10:51:58.368Z,39424.00
2018-09-28T10:52:58.279Z,83680.00
2018-09-28T10:53:58.445Z,85280.00
2018-09-28T10:54:58.410Z,85408.00
2018-09-28T10:56:01.213Z,85024.00
2018-09-28T10:56:58.169Z,24864.00
2018-09-28T10:57:58.348Z,21408.00
2018-09-28T10:58:58.463Z,20736.00
2018-09-28T10:59:58.314Z,21440.00
2018-09-28T11:00:58.085Z,26560.00
2018-09-28T11:01:58.062Z,21888.00
2018-09-28T11:02:58.041Z,58336.00
2018-09-28T11:03:58.023Z,57920.00
2018-09-28T11:04:58.000Z,51488.00
2018-09-28T11:05:57.977Z,45792.00
2018-09-28T11:06:57.960Z,53024.00
2018-09-28T11:07:57.934Z,63200.00
2018-09-28T11:08:58.000Z,71040.00
2018-09-28T11:09:57.891Z,73952.00
2018-09-28T11:10:57.870Z,80992.00
2018-09-28T11:11:57.848Z,81696.00
2018-09-28T11:12:57.827Z,25408.00
2018-09-28T11:13:57.858Z,21408.00
2018-09-28T11:14:57.784Z,22848.00
2018-09-28T11:15:57.761Z,23776.00
2018-09-28T11:16:57.741Z,27616.00
2018-09-28T11:17:57.731Z,57824.00
2018-09-28T11:18:57.767Z,58304.00
2018-09-28T11:19:57.676Z,55712.00
2018-09-28T11:20:57.861Z,45856.00
2018-09-28T11:21:57.635Z,35904.00
2018-09-28T11:22:57.611Z,23616.00
2018-09-28T11:23:57.590Z,22976.00
2018-09-28T11:24:57.573Z,24672.00
2018-09-28T11:25:57.545Z,25184.00
2018-09-28T11:26:57.529Z,25792.00
2018-09-28T11:27:57.510Z,38560.00
2018-09-28T11:28:57.481Z,37952.00
2018-09-28T11:29:57.457Z,37120.00
2018-09-28T11:30:57.638Z,60224.00
2018-09-28T11:31:57.413Z,61312.00
2018-09-28T11:32:57.592Z,82528.00
2018-09-28T11:33:57.370Z,82496.00
2018-09-28T11:34:57.351Z,61184.00
2018-09-28T11:35:57.330Z,19648.00
2018-09-28T11:36:57.304Z,17760.00
2018-09-28T11:37:57.281Z,18144.00
2018-09-28T11:38:57.266Z,19616.00
2018-09-28T11:39:57.238Z,22528.00
2018-09-28T11:40:57.417Z,43712.00
2018-09-28T11:41:57.395Z,88096.00
2018-09-28T11:42:57.173Z,89440.00
2018-09-28T11:43:57.151Z,78752.00
2018-09-28T11:44:57.126Z,88256.00
2018-09-28T11:45:57.103Z,87392.00
2018-09-28T11:46:57.082Z,90336.00
2018-09-28T11:47:57.061Z,89216.00
2018-09-28T11:48:57.041Z,90784.00
2018-09-28T11:49:57.018Z,89216.00
2018-09-28T11:50:56.998Z,85568.00
2018-09-28T11:51:56.980Z,85120.00
2018-09-28T11:52:57.160Z,83616.00
2018-09-28T11:53:57.139Z,79136.00
2018-09-28T11:54:57.119Z,62560.00
2018-09-28T11:55:56.898Z,31552.00
2018-09-28T11:56:56.877Z,27936.00
2018-09-28T11:57:57.061Z,24288.00
2018-09-28T11:58:56.838Z,22048.00
2018-09-28T11:59:56.861Z,19872.00
2018-09-28T12:00:56.798Z,17856.00
2018-09-28T12:01:56.994Z,16364.00
2018-09-28T12:02:56.755Z,15188.00
2018-09-28T12:03:56.737Z,14784.00
2018-09-28T12:04:56.728Z,14884.00
2018-09-28T12:05:56.693Z,15008.00
2018-09-28T12:06:56.842Z,15544.00
2018-09-28T12:07:56.653Z,16424.00
2018-09-28T12:08:56.628Z,17324.00
2018-09-28T12:09:56.605Z,18880.00
2018-09-28T12:10:56.619Z,37440.00
2018-09-28T12:11:56.561Z,17316.00
2018-09-28T12:12:56.541Z,15224.00
2018-09-28T12:13:56.717Z,13232.00
2018-09-28T12:14:56.492Z,12148.00
2018-09-28T12:15:56.675Z,11564.00
2018-09-28T12:16:56.649Z,11492.00
2018-09-28T12:17:56.625Z,12064.00
2018-09-28T12:18:56.604Z,12960.00
2018-09-28T12:19:56.389Z,14796.00
2018-09-28T12:20:57.566Z,20992.00
2018-09-28T12:21:56.542Z,50208.00